createdAt,value
2023-01-13T00:02:39.514Z,10.19
2023-01-13T00:12:42.184Z,10.15
2023-01-13T00:22:43.952Z,10.11
2023-01-13T00:32:45.428Z,10.07
2023-01-13T00:43:05.245Z,10.07
2023-01-13T00:53:06.628Z,10.03
2023-01-13T01:03:12.213Z,9.98
2023-01-13T01:13:17.095Z,9.93
2023-01-13T01:23:18.455Z,9.90
2023-01-13T01:33:19.976Z,9.81
2023-01-13T01:43:41.760Z,9.74
2023-01-13T01:53:43.622Z,9.65
2023-01-13T02:03:52.329Z,9.50
2023-01-13T02:13:53.950Z,9.51
2023-01-13T02:24:56.533Z,9.42
2023-01-13T02:35:35.288Z,9.39
2023-01-13T02:45:44.295Z,9.36
2023-01-13T02:55:51.613Z,9.24
2023-01-13T03:06:23.226Z,9.07
2023-01-13T03:16:30.498Z,8.93
2023-01-13T03:26:41.651Z,8.83
2023-01-13T03:36:47.949Z,8.73
2023-01-13T03:47:00.422Z,8.60
2023-01-13T03:57:07.202Z,8.58
2023-01-13T04:07:32.340Z,8.63
2023-01-13T04:17:33.880Z,8.58
2023-01-13T04:27:35.376Z,8.59
2023-01-13T04:37:37.090Z,8.51
2023-01-13T04:47:38.846Z,8.55
2023-01-13T04:57:40.560Z,8.57
2023-01-13T05:07:42.051Z,8.56
2023-01-13T05:17:43.846Z,8.51
2023-01-13T05:27:45.250Z,8.53
2023-01-13T05:37:47.367Z,8.54
2023-01-13T05:47:48.802Z,8.55
2023-01-13T05:57:50.310Z,8.48
2023-01-13T06:07:51.813Z,8.43
2023-01-13T06:17:53.846Z,8.41
2023-01-13T06:27:58.442Z,8.26
2023-01-13T06:38:03.077Z,8.26
2023-01-13T06:48:05.082Z,8.19
2023-01-13T06:58:06.805Z,8.15
2023-01-13T07:08:09.557Z,8.08
2023-01-13T07:18:11.033Z,8.01
2023-01-13T07:28:12.548Z,7.93
2023-01-13T07:38:14.042Z,7.93
2023-01-13T07:48:15.595Z,7.95
2023-01-13T07:58:17.121Z,7.98
2023-01-13T08:08:18.920Z,8.04
2023-01-13T08:18:22.343Z,8.08
2023-01-13T08:28:24.487Z,8.10
2023-01-13T08:38:26.009Z,8.19
2023-01-13T08:48:31.303Z,8.24
2023-01-13T08:58:33.080Z,8.28
2023-01-13T09:08:34.583Z,8.30
2023-01-13T09:18:36.073Z,8.36
2023-01-13T09:28:37.436Z,8.42
2023-01-13T09:38:38.946Z,8.48
2023-01-13T09:48:51.990Z,8.48
2023-01-13T09:58:53.677Z,8.57
2023-01-13T10:08:55.928Z,8.67
2023-01-13T10:19:00.179Z,8.71
2023-01-13T10:29:01.732Z,8.88
2023-01-13T10:39:15.246Z,9.10
2023-01-13T10:49:36.257Z,9.20
2023-01-13T10:59:37.850Z,9.20
2023-01-13T11:09:39.253Z,9.23
2023-01-13T11:19:47.964Z,9.25
2023-01-13T11:29:55.350Z,9.33
2023-01-13T11:40:19.026Z,9.43
2023-01-13T11:50:34.971Z,9.39
2023-01-13T12:01:10.144Z,9.30
2023-01-13T12:11:22.688Z,9.20
2023-01-13T12:21:29.634Z,9.16
2023-01-13T12:31:35.387Z,9.10
2023-01-13T12:42:19.692Z,9.16
2023-01-13T12:52:21.284Z,9.18
2023-01-13T13:02:29.075Z,9.19
2023-01-13T13:12:49.424Z,9.21
2023-01-13T13:22:51.360Z,9.20
2023-01-13T13:33:12.161Z,9.15
2023-01-13T13:43:33.862Z,9.17
2023-01-13T13:53:41.989Z,9.13
2023-01-13T14:03:43.526Z,9.05
2023-01-13T14:13:44.936Z,8.96
2023-01-13T14:23:56.274Z,8.94
2023-01-13T14:34:02.840Z,8.88
2023-01-13T14:44:30.770Z,8.81
2023-01-13T14:54:41.240Z,8.76
2023-01-13T15:04:42.659Z,8.72
2023-01-13T15:14:44.226Z,8.68
2023-01-13T15:24:46.858Z,8.69
2023-01-13T15:34:48.969Z,8.70
2023-01-13T15:45:09.101Z,8.65
2023-01-13T15:55:10.578Z,8.68
2023-01-13T16:05:12.475Z,8.69
2023-01-13T16:15:15.671Z,8.68
2023-01-13T16:25:20.216Z,8.68
2023-01-13T16:35:23.282Z,8.66
2023-01-13T16:45:25.249Z,8.63
2023-01-13T16:55:27.788Z,8.63
2023-01-13T17:05:29.257Z,8.69
2023-01-13T17:15:30.794Z,8.65
2023-01-13T17:25:32.891Z,8.65
2023-01-13T17:35:34.315Z,8.61
2023-01-13T17:45:40.716Z,8.63
2023-01-13T17:55:49.866Z,8.61
2023-01-13T18:05:51.377Z,8.63
2023-01-13T18:16:10.818Z,8.60
2023-01-13T18:26:36.138Z,8.57
2023-01-13T18:36:38.342Z,8.59
2023-01-13T18:46:40.036Z,8.59
2023-01-13T18:56:41.543Z,8.57
2023-01-13T19:06:49.036Z,8.57
2023-01-13T19:16:50.970Z,8.61
2023-01-13T19:26:54.679Z,8.57
2023-01-13T19:36:56.194Z,8.60
2023-01-13T19:46:57.934Z,8.59
2023-01-13T19:56:59.401Z,8.55
2023-01-13T20:07:00.943Z,8.46
2023-01-13T20:17:02.302Z,8.45
2023-01-13T20:27:04.605Z,8.37
2023-01-13T20:37:06.085Z,8.31
2023-01-13T20:47:08.178Z,8.22
2023-01-13T20:57:11.488Z,8.21
2023-01-13T21:07:12.992Z,8.15
2023-01-13T21:17:35.151Z,8.14
2023-01-13T21:27:36.544Z,8.14
2023-01-13T21:37:39.285Z,8.12
2023-01-13T21:47:49.735Z,8.12
2023-01-13T21:57:54.368Z,8.12
2023-01-13T22:07:55.718Z,8.07
2023-01-13T22:17:57.334Z,8.07
2023-01-13T22:28:03.755Z,8.10
2023-01-13T22:38:05.125Z,8.10
2023-01-13T22:48:06.863Z,8.14
2023-01-13T22:58:08.663Z,8.17
2023-01-13T23:08:10.789Z,8.16
2023-01-13T23:18:12.222Z,8.21
2023-01-13T23:28:13.660Z,8.17
2023-01-13T23:38:15.148Z,8.15
2023-01-13T23:48:18.481Z,8.14
2023-01-13T23:58:20.313Z,8.10
